This is the latest recevied weather packets stored in our database for station/object SQ6ELQ-11. If no packets are shown the sender has not sent any weather packets the latest 10 day(s).
| Time | Temp. | Humidity | Pressure | Rain* | Wind** | Luminosity | Snow |
|---|---|---|---|---|---|---|---|
| 1777581556 | 3.33° C | 49% | 1028.5 hPa | 0 mm | - | - | - |
| 1777580460 | 2.78° C | 49% | 1028.7 hPa | 0 mm | - | - | - |
| 1777579401 | 3.33° C | 50% | 1028.6 hPa | 0 mm | - | - | - |
| 1777578296 | 3.33° C | 47% | 1028.6 hPa | 0 mm | - | - | - |
| 1777577142 | 3.89° C | 47% | 1028.6 hPa | 0 mm | - | - | - |
| 1777576090 | 4.44° C | 44% | 1028.5 hPa | 0 mm | - | - | - |
| 1777574992 | 6.11° C | 42% | 1028.4 hPa | 0 mm | - | - | - |
| 1777573932 | 6.67° C | 39% | 1028.4 hPa | 0 mm | - | - | - |
| 1777572876 | 8.33° C | 35% | 1028.4 hPa | 0 mm | - | - | - |
| 1777571857 | 10° C | 32% | 1028.4 hPa | 0 mm | - | - | - |
| 1777570811 | 11.67° C | 30% | 1028.3 hPa | 0 mm | - | - | - |
| 1777569665 | 12.78° C | 28% | 1028.3 hPa | 0 mm | - | - | - |
| 1777568510 | 12.78° C | 27% | 1028.3 hPa | 0 mm | - | - | - |
| 1777567457 | 12.78° C | 27% | 1028.2 hPa | 0 mm | - | - | - |
| 1777566395 | 12.78° C | 26% | 1028.2 hPa | 0 mm | - | - | - |
| 1777565407 | 12.78° C | 27% | 1028.3 hPa | 0 mm | - | - | - |
| 1777564328 | 12.78° C | 27% | 1028.5 hPa | 0 mm | - | - | - |
| 1777563301 | 13.89° C | 24% | 1028.4 hPa | 0 mm | - | - | - |
| 1777562231 | 13.89° C | 24% | 1028.5 hPa | 0 mm | - | - | - |
| 1777561208 | 14.44° C | 23% | 1028.4 hPa | 0 mm | - | - | - |
| 1777560191 | 13.89° C | 22% | 1028.6 hPa | 0 mm | - | - | - |
| 1777558005 | 14.44° C | 22% | 1028.8 hPa | 0 mm | - | - | - |
| 1777556946 | 13.89° C | 23% | 1028.9 hPa | 0 mm | - | - | - |
| 1777555851 | 11.11° C | 25% | 1029.2 hPa | 0 mm | - | - | - |
| 1777554843 | 12.78° C | 26% | 1029.1 hPa | 0 mm | - | - | - |
* Rain latest hour (hover to see other rain measurements)
** Current wind speed in m/s (hover to see current wind gust speed)